Time;durP1;ratioP1;P1;durP2;ratioP2;P2;SDS_P1;SDS_P2;PMS_P1;PMS_P2;Temp;Humidity;BMP_temperature;BMP_pressure;BME280_temperature;BME280_humidity;BME280_pressure;Samples;Min_cycle;Max_cycle;Signal;HPM_P1;HPM_P2
2021/11/17 02:28:12;;;;;;;92.30;46.42;;;;;;;-5.68;77.91;100819.14;1818516;77;21446;-69
2021/11/17 02:31:12;;;;;;;91.75;46.48;;;;;;;-5.71;78.02;100825.58;1818170;79;21079;-69
2021/11/17 02:33:58;;;;;;;94.72;46.37;;;;;;;-5.70;78.05;100819.75;1819393;77;21546;-68
2021/11/17 02:36:45;;;;;;;90.15;45.38;;;;;;;-5.69;78.06;100813.48;1819074;79;21020;-68
2021/11/17 02:39:23;;;;;;;92.33;44.42;;;;;;;-5.68;78.07;100824.45;1819136;77;21096;-68
2021/11/17 02:42:16;;;;;;;93.87;45.70;;;;;;;-5.67;78.03;100822.96;1819324;79;21007;-68
2021/11/17 02:45:11;;;;;;;98.45;45.88;;;;;;;-5.66;78.02;100811.87;1819318;77;21087;-68
2021/11/17 02:47:52;;;;;;;79.97;41.40;;;;;;;-5.65;77.98;100818.85;1808703;77;21523;-68
2021/11/17 02:50:59;;;;;;;83.80;43.90;;;;;;;-5.65;78.02;100818.85;1819041;79;21020;-68
2021/11/17 02:53:46;;;;;;;89.20;42.62;;;;;;;-5.63;78.08;100815.55;1812427;78;21576;-68
2021/11/17 02:57:04;;;;;;;84.00;42.73;;;;;;;-5.62;78.06;100816.75;1805228;79;21044;-68
2021/11/17 02:59:59;;;;;;;73.75;38.40;;;;;;;-5.61;78.01;100821.58;1804996;78;21340;-69
2021/11/17 03:02:54;;;;;;;80.65;40.73;;;;;;;-5.63;78.08;100821.70;1803735;79;21010;-68
2021/11/17 03:05:47;;;;;;;86.42;41.23;;;;;;;-5.64;78.10;100817.40;1805062;79;21057;-68
2021/11/17 03:08:59;;;;;;;75.22;40.38;;;;;;;-5.65;78.08;100814.39;1789460;78;21065;-69
2021/11/17 03:12:00;;;;;;;76.02;39.45;;;;;;;-5.65;78.08;100824.16;1805067;79;21025;-68
2021/11/17 03:14:53;;;;;;;78.47;40.50;;;;;;;-5.68;78.09;100825.29;1804867;78;21641;-69
2021/11/17 03:17:51;;;;;;;81.17;40.15;;;;;;;-5.69;78.14;100818.30;1804686;79;21492;-69
2021/11/17 03:20:38;;;;;;;84.50;41.05;;;;;;;-5.71;78.14;100810.14;1805225;79;21005;-69
2021/11/17 03:23:32;;;;;;;75.57;40.83;;;;;;;-5.74;78.08;100809.91;1804674;78;21100;-68
2021/11/17 03:26:47;;;;;;;81.97;40.25;;;;;;;-5.75;78.13;100813.56;1805038;79;21574;-69
2021/11/17 03:29:24;;;;;;;83.42;40.00;;;;;;;-5.76;78.18;100812.38;1805262;78;21009;-69
2021/11/17 03:32:29;;;;;;;81.32;40.00;;;;;;;-5.77;78.18;100813.34;1786618;79;21021;-68
2021/11/17 03:35:37;;;;;;;81.47;39.80;;;;;;;-5.77;78.19;100809.36;1805051;79;21061;-69
2021/11/17 03:38:17;;;;;;;83.22;40.03;;;;;;;-5.80;78.14;100810.48;1771091;81;21049;-68
2021/11/17 03:41:06;;;;;;;77.03;39.00;;;;;;;-5.81;78.13;100815.95;1799496;79;21076;-69
2021/11/17 03:44:02;;;;;;;80.97;40.15;;;;;;;-5.84;78.07;100810.42;1788975;78;21017;-69
2021/11/17 03:46:43;;;;;;;81.32;39.10;;;;;;;-5.86;77.98;100809.77;1803198;79;21565;-68
2021/11/17 03:49:30;;;;;;;73.57;38.67;;;;;;;-5.89;77.96;100802.09;1805173;78;21548;-69
2021/11/17 03:52:36;;;;;;;75.35;39.23;;;;;;;-5.91;77.95;100803.19;1805122;79;20977;-68
2021/11/17 03:55:17;;;;;;;81.50;40.83;;;;;;;-5.92;77.90;100802.38;1805181;79;21028;-68
2021/11/17 03:57:55;;;;;;;82.50;39.63;;;;;;;-5.94;77.89;100799.02;1804082;78;21668;-68
2021/11/17 04:00:39;;;;;;;79.35;40.08;;;;;;;-5.99;77.91;100795.97;1755654;79;21100;-69
2021/11/17 04:03:31;;;;;;;76.97;37.95;;;;;;;-6.00;77.90;100796.09;1804294;78;21033;-69
2021/11/17 04:06:24;;;;;;;81.08;39.30;;;;;;;-6.03;77.90;100793.24;1805083;79;21041;-68
2021/11/17 04:09:25;;;;;;;77.45;38.40;;;;;;;-6.08;77.93;100788.84;1805222;78;21129;-69
2021/11/17 04:12:26;;;;;;;89.22;44.93;;;;;;;-6.12;77.96;100785.63;1805071;79;21061;-68
2021/11/17 04:15:01;;;;;;;86.97;43.90;;;;;;;-6.13;77.99;100790.56;1805168;78;21607;-68
2021/11/17 04:17:58;;;;;;;84.58;41.37;;;;;;;-6.14;78.07;100787.59;1800962;79;21029;-69
2021/11/17 04:20:30;;;;;;;83.95;43.17;;;;;;;-6.12;78.10;100788.28;1805022;79;21618;-68
2021/11/17 04:23:31;;;;;;;79.82;39.80;;;;;;;-6.06;78.18;100796.17;1804511;78;21057;-69
2021/11/17 04:26:19;;;;;;;77.25;37.45;;;;;;;-6.05;78.15;100790.72;1805344;79;21496;-70
2021/11/17 04:29:03;;;;;;;82.22;42.60;;;;;;;-6.03;78.12;100791.92;1805231;78;21080;-68
2021/11/17 04:31:50;;;;;;;85.67;42.53;;;;;;;-6.03;78.16;100790.59;1804809;79;21006;-69
2021/11/17 04:34:49;;;;;;;75.65;36.15;;;;;;;-6.03;78.16;100779.98;1804343;78;21100;-69
2021/11/17 04:37:27;;;;;;;76.95;38.38;;;;;;;-6.00;78.16;100782.35;1805302;79;21512;-69
2021/11/17 04:40:28;;;;;;;75.00;37.85;;;;;;;-6.00;78.15;100780.19;1804447;79;21571;-69
2021/11/17 04:43:38;;;;;;;81.28;39.85;;;;;;;-6.01;78.12;100775.38;1805163;78;21045;-69
2021/11/17 04:46:27;;;;;;;83.60;38.60;;;;;;;-6.03;78.05;100775.17;1788054;79;21057;-69
2021/11/17 04:49:13;;;;;;;73.35;36.53;;;;;;;-6.06;78.08;100773.64;1803898;78;21042;-69
2021/11/17 04:52:03;;;;;;;71.00;34.03;;;;;;;-6.09;78.04;100773.41;1805270;79;21571;-69
2021/11/17 04:55:00;;;;;;;76.53;37.88;;;;;;;-6.12;78.02;100770.20;1803850;77;21037;-69
2021/11/17 04:57:41;;;;;;;75.17;38.65;;;;;;;-6.16;77.96;100774.95;1801230;79;20981;-69
2021/11/17 05:00:29;;;;;;;78.62;37.75;;;;;;;-6.20;77.96;100770.90;1805212;79;21579;-69
2021/11/17 05:03:04;;;;;;;78.78;37.15;;;;;;;-6.21;78.03;100771.05;1803415;78;21049;-69
2021/11/17 05:05:41;;;;;;;76.92;38.08;;;;;;;-6.22;78.14;100768.05;1804903;79;21527;-69
2021/11/17 05:08:32;;;;;;;72.05;37.38;;;;;;;-6.23;78.20;100761.91;1804892;78;21153;-69
2021/11/17 05:11:07;;;;;;;71.00;35.78;;;;;;;-6.22;78.27;100764.08;1802413;79;21053;-69
2021/11/17 05:14:04;;;;;;;73.37;36.03;;;;;;;-6.23;78.33;100768.53;1803641;78;21597;-69
2021/11/17 05:17:02;;;;;;;68.67;36.17;;;;;;;-6.22;78.34;100761.42;1778286;79;21015;-69
2021/11/17 05:19:57;;;;;;;70.30;33.80;;;;;;;-6.23;78.38;100763.72;1804368;78;21339;-69
2021/11/17 05:22:54;;;;;;;73.65;36.05;;;;;;;-6.27;78.40;100765.80;1803902;79;21006;-69
2021/11/17 05:25:28;;;;;;;74.70;37.65;;;;;;;-6.29;78.38;100761.14;1805302;79;20973;-69
2021/11/17 05:28:12;;;;;;;67.25;33.55;;;;;;;-6.29;78.47;100755.84;1804746;78;21578;-69
2021/11/17 05:30:56;;;;;;;81.65;38.45;;;;;;;-6.27;78.51;100762.34;1805248;79;21037;-71
2021/11/17 05:33:46;;;;;;;68.70;35.98;;;;;;;-6.25;78.51;100759.06;1804986;78;21053;-68
2021/11/17 05:36:33;;;;;;;68.45;35.52;;;;;;;-6.24;78.52;100758.93;1804353;79;21539;-69
2021/11/17 05:39:34;;;;;;;72.40;37.78;;;;;;;-6.22;78.56;100768.05;1804557;78;21045;-69
2021/11/17 05:42:18;;;;;;;70.12;35.88;;;;;;;-6.23;78.56;100759.25;1756096;79;21047;-69
2021/11/17 05:44:55;;;;;;;65.92;35.33;;;;;;;-6.24;78.61;100754.95;1805098;78;21097;-69
2021/11/17 05:47:25;;;;;;;;;;;;;;;-6.23;78.65;100759.25;1807205;79;21507;-69
2021/11/17 05:50:09;;;;;;;63.40;32.30;;;;;;;-6.22;78.72;100756.13;1805296;78;20142;-69
2021/11/17 05:52:55;;;;;;;62.43;32.55;;;;;;;-6.26;78.86;100750.75;1783564;78;21005;-69
2021/11/17 05:55:57;;;;;;;68.17;36.25;;;;;;;-6.24;78.92;100751.47;1818047;78;21039;-69
2021/11/17 05:58:38;;;;;;;68.12;37.13;;;;;;;-6.22;79.03;100756.13;1819161;77;21016;-69
2021/11/17 06:01:43;;;;;;;70.05;35.17;;;;;;;-6.20;79.12;100751.54;1817981;79;21428;-69
2021/11/17 06:04:11;;;;;;;67.95;35.92;;;;;;;-6.15;79.22;100745.31;1819222;77;21020;-69
2021/11/17 06:06:38;;;;;;;59.33;31.33;;;;;;;-6.11;79.28;100743.58;1819166;79;21075;-69
2021/11/17 06:09:05;;;;;;;62.45;34.90;;;;;;;-6.04;79.30;100747.81;1819132;77;21048;-69
2021/11/17 06:11:36;;;;;;;70.25;34.88;;;;;;;-5.98;79.32;100745.92;1818894;79;21090;-69
2021/11/17 06:14:03;;;;;;;68.02;37.98;;;;;;;-5.94;79.33;100745.15;1819061;77;21059;-69
2021/11/17 06:16:29;;;;;;;64.27;34.75;;;;;;;-5.89;79.37;100738.95;1818989;79;21047;-69
2021/11/17 06:18:56;;;;;;;68.15;35.58;;;;;;;-5.85;79.42;100743.80;1818969;77;21106;-69
2021/11/17 06:21:22;;;;;;;73.12;36.95;;;;;;;-5.78;79.44;100744.91;1819229;79;21043;-69
2021/11/17 06:23:53;;;;;;;70.50;35.23;;;;;;;-5.68;79.50;100744.88;1819361;77;21032;-69
2021/11/17 06:26:24;;;;;;;70.42;35.73;;;;;;;-5.57;79.53;100746.03;1818979;78;21043;-69
2021/11/17 06:28:56;;;;;;;68.50;36.45;;;;;;;-5.40;79.57;100744.44;1819486;77;21063;-69
2021/11/17 06:31:23;;;;;;;78.85;41.37;;;;;;;-5.19;79.61;100751.69;1819039;79;21032;-69
2021/11/17 06:33:49;;;;;;;;;;;;;;;-4.96;79.54;100746.36;1822015;77;21082;-69
2021/11/17 06:36:17;;;;;;;74.58;40.20;;;;;;;-4.73;79.48;100742.78;1819183;79;20117;-69
2021/11/17 06:38:45;;;;;;;65.12;37.53;;;;;;;-4.56;79.42;100746.80;1819208;77;21554;-69
2021/11/17 06:41:11;;;;;;;59.73;33.73;;;;;;;-4.32;79.30;100748.05;1819106;79;21086;-69
2021/11/17 06:43:38;;;;;;;59.45;35.92;;;;;;;-4.12;79.10;100751.72;1820930;77;21032;-69
2021/11/17 06:46:04;;;;;;;49.38;29.98;;;;;;;-3.91;78.86;100754.54;1818966;79;21066;-69
2021/11/17 06:48:30;;;;;;;52.78;31.20;;;;;;;-3.73;78.72;100743.38;1819077;77;21110;-70
2021/11/17 06:50:58;;;;;;;53.50;32.23;;;;;;;-3.51;78.49;100745.53;1819370;79;21091;-69
2021/11/17 06:53:25;;;;;;;51.85;30.25;;;;;;;-3.36;78.13;100747.93;1819066;77;21063;-69
2021/11/17 06:55:52;;;;;;;56.40;33.63;;;;;;;-3.24;77.76;100747.17;1819375;79;20980;-70
2021/11/17 06:58:19;;;;;;;51.77;30.37;;;;;;;-3.12;77.52;100745.91;1819333;77;21538;-69
2021/11/17 07:00:46;;;;;;;60.78;33.98;;;;;;;-2.98;77.27;100745.80;1819392;79;21027;-70
2021/11/17 07:03:13;;;;;;;115.97;45.15;;;;;;;-2.79;77.21;100741.53;1818995;77;21090;-70
2021/11/17 07:05:39;;;;;;;101.20;39.95;;;;;;;-2.64;76.82;100743.42;1819127;79;21011;-69
2021/11/17 07:08:06;;;;;;;;;;;;;;;-2.55;76.46;100750.44;1821919;77;21063;-70
2021/11/17 07:10:34;;;;;;;96.63;40.43;;;;;;;-2.45;76.25;100742.80;1818913;79;20125;-69
2021/11/17 07:13:00;;;;;;;90.75;42.25;;;;;;;-2.42;75.99;100743.81;1818854;77;21638;-69
2021/11/17 07:15:28;;;;;;;82.08;40.70;;;;;;;-2.29;75.89;100746.33;1819548;79;21448;-70
2021/11/17 07:17:55;;;;;;;63.87;36.23;;;;;;;-2.08;75.82;100745.84;1819207;77;21335;-69
2021/11/17 07:20:21;;;;;;;84.10;44.38;;;;;;;-1.89;75.49;100746.87;1819216;79;21028;-69
2021/11/17 07:22:48;;;;;;;82.05;46.13;;;;;;;-1.77;75.06;100741.50;1819317;77;21034;-70
2021/11/17 07:25:17;;;;;;;98.62;48.75;;;;;;;-1.59;74.98;100743.49;1819483;79;21011;-70
2021/11/17 07:27:43;;;;;;;66.50;37.58;;;;;;;-1.39;74.68;100741.80;1818848;77;21597;-69
2021/11/17 07:30:13;;;;;;;88.62;43.90;;;;;;;-1.27;74.29;100746.60;1819299;79;21016;-69
2021/11/17 07:32:40;;;;;;;76.77;43.05;;;;;;;-1.13;73.98;100741.88;1819146;77;20988;-70
2021/11/17 07:35:08;;;;;;;63.63;38.50;;;;;;;-0.91;74.14;100734.12;1819456;79;20964;-70
2021/11/17 07:37:35;;;;;;;53.40;33.38;;;;;;;-0.70;73.77;100743.22;1818919;77;21050;-70
2021/11/17 07:40:03;;;;;;;39.95;26.57;;;;;;;-0.50;73.38;100741.77;1819365;79;20953;-70
2021/11/17 07:42:29;;;;;;;42.90;26.45;;;;;;;-0.23;73.26;100739.61;1818961;79;20991;-70
2021/11/17 07:44:55;;;;;;;41.20;28.45;;;;;;;-0.05;72.62;100735.63;1819155;79;21063;-70
2021/11/17 07:47:21;;;;;;;37.48;24.20;;;;;;;0.17;72.40;100733.95;1819109;79;21031;-70
2021/11/17 07:49:48;;;;;;;38.73;23.80;;;;;;;0.36;71.99;100734.77;1819121;77;21530;-70
2021/11/17 07:52:14;;;;;;;38.30;24.75;;;;;;;0.55;71.40;100731.25;1819061;79;21102;-70
2021/11/17 07:54:40;;;;;;;36.40;24.45;;;;;;;0.70;70.87;100734.28;1813461;77;21049;-70
2021/11/17 07:57:08;;;;;;;35.13;23.07;;;;;;;0.78;70.12;100733.36;1805195;79;21022;-70
2021/11/17 07:59:35;;;;;;;36.53;23.55;;;;;;;0.87;69.66;100738.44;1805023;78;21523;-70
2021/11/17 08:02:09;;;;;;;32.85;22.05;;;;;;;0.96;69.31;100737.32;1804942;79;21077;-70
2021/11/17 08:04:37;;;;;;;31.90;21.57;;;;;;;1.15;69.12;100737.27;1804921;78;21081;-70
2021/11/17 08:07:13;;;;;;;32.10;21.68;;;;;;;1.29;68.91;100736.42;1805122;79;21080;-70
2021/11/17 08:09:42;;;;;;;33.45;21.25;;;;;;;1.60;68.99;100740.69;1804974;78;21543;-70
2021/11/17 08:12:10;;;;;;;30.10;20.32;;;;;;;1.93;68.89;100743.23;1805039;79;21068;-70
2021/11/17 08:14:36;;;;;;;;;;;;;;;2.20;68.06;100738.42;1780846;79;21084;-70
2021/11/17 08:17:04;;;;;;;;;;;;;;;2.42;67.44;100743.25;1807782;79;20103;-70
2021/11/17 08:19:32;;;;;;;35.33;20.45;;;;;;;2.59;67.36;100733.07;1804761;78;20131;-70
2021/11/17 08:21:58;;;;;;;52.55;28.67;;;;;;;2.75;66.70;100739.48;1805209;79;21013;-70
2021/11/17 08:24:24;;;;;;;33.42;21.07;;;;;;;2.91;65.22;100741.84;1805174;78;21037;-70
2021/11/17 08:26:51;;;;;;;35.58;21.82;;;;;;;2.99;64.62;100742.53;1805508;79;20981;-70
2021/11/17 08:29:17;;;;;;;33.55;22.37;;;;;;;3.13;64.05;100735.36;1805379;78;21076;-70
2021/11/17 08:31:44;;;;;;;46.80;27.75;;;;;;;3.26;63.04;100734.61;1805189;79;21005;-70
2021/11/17 08:34:10;;;;;;;32.98;20.95;;;;;;;3.26;62.25;100733.27;1805125;78;21037;-70
2021/11/17 08:36:37;;;;;;;33.20;22.10;;;;;;;3.32;62.21;100730.59;1805180;79;21053;-70
2021/11/17 08:39:04;;;;;;;31.17;22.48;;;;;;;3.45;61.99;100733.33;1805221;78;21077;-70
2021/11/17 08:41:31;;;;;;;29.55;20.45;;;;;;;3.60;61.60;100732.34;1804966;79;21029;-70
2021/11/17 08:43:57;;;;;;;32.95;21.73;;;;;;;3.82;61.47;100724.44;1805251;78;21028;-70
2021/11/17 08:46:23;;;;;;;26.07;20.08;;;;;;;3.95;60.15;100716.38;1805239;79;21005;-70
2021/11/17 08:48:51;;;;;;;;;;;;;;;4.01;59.73;100712.84;1812730;78;21056;-71
2021/11/17 08:51:18;;;;;;;29.90;19.65;;;;;;;4.16;59.88;100719.39;1821364;78;20461;-70
2021/11/17 08:53:46;;;;;;;29.30;20.23;;;;;;;4.31;59.60;100713.30;1815043;78;21040;-71
2021/11/17 08:56:13;;;;;;;27.65;21.07;;;;;;;4.43;58.75;100715.14;1810313;77;21037;-71
2021/11/17 08:58:39;;;;;;;29.55;21.23;;;;;;;4.47;58.12;100716.39;1805315;79;21009;-70
2021/11/17 09:01:07;;;;;;;38.08;24.75;;;;;;;4.60;58.46;100710.17;1807988;78;21057;-71
2021/11/17 09:03:34;;;;;;;30.20;19.35;;;;;;;4.69;57.62;100705.37;1827300;77;21054;-70
2021/11/17 09:06:01;;;;;;;;;;;;;;;4.80;57.51;100702.04;1823152;78;20978;-70
2021/11/17 09:09:58;;;;;;;28.70;19.00;;;;;;;4.81;57.02;100702.36;1773907;79;23321;-69
2021/11/17 09:12:25;;;;;;;33.15;21.85;;;;;;;4.73;56.34;100695.83;1737573;82;21034;-69
2021/11/17 09:14:52;;;;;;;30.25;19.95;;;;;;;4.73;56.37;100689.09;1749462;82;21043;-68
2021/11/17 09:17:18;;;;;;;;;;;;;;;4.73;55.97;100691.78;1749228;82;21051;-68
2021/11/17 09:19:44;;;;;;;22.10;16.80;;;;;;;4.75;56.13;100688.34;1723014;83;20132;-68
2021/11/17 09:22:11;;;;;;;25.40;17.65;;;;;;;4.80;56.86;100681.80;1723213;83;21062;-68
2021/11/17 09:24:37;;;;;;;23.90;15.53;;;;;;;5.03;56.56;100684.84;1723144;83;21023;-70
2021/11/17 09:27:05;;;;;;;20.80;13.60;;;;;;;5.10;55.45;100678.90;1728360;82;21033;-70
2021/11/17 09:29:33;;;;;;;20.45;13.30;;;;;;;5.00;54.68;100667.73;1711429;82;21081;-70
2021/11/17 09:32:00;;;;;;;18.07;12.90;;;;;;;4.97;54.49;100660.90;1723309;83;21466;-69
2021/11/17 09:34:27;;;;;;;18.12;11.97;;;;;;;4.90;54.24;100666.00;1746404;82;21123;-69
2021/11/17 09:36:53;;;;;;;16.02;11.48;;;;;;;4.81;53.95;100664.59;1752809;82;21581;-70
2021/11/17 09:39:19;;;;;;;;;;;;;;;4.71;53.88;100661.51;1755503;82;21553;-71
2021/11/17 09:41:51;;;;;;;14.93;10.95;;;;;;;4.56;53.70;100660.39;1753004;82;20522;-71
2021/11/17 09:44:30;;;;;;;16.50;11.97;;;;;;;4.33;54.49;100655.44;1748130;81;21122;-69
2021/11/17 09:46:58;;;;;;;16.40;12.60;;;;;;;4.24;54.65;100649.12;1747592;82;20935;-69
2021/11/17 09:49:41;;;;;;;19.73;13.43;;;;;;;4.31;54.87;100649.44;1756734;80;21111;-70
2021/11/17 09:52:13;;;;;;;15.18;10.53;;;;;;;4.37;54.55;100646.41;1778868;80;21034;-69
2021/11/17 09:55:13;;;;;;;18.98;11.45;;;;;;;4.30;54.43;100644.23;1711443;83;21572;-70
2021/11/17 09:57:45;;;;;;;15.65;10.13;;;;;;;4.42;54.67;100644.77;1689475;85;21515;-69
2021/11/17 10:00:28;;;;;;;14.83;10.38;;;;;;;4.60;54.21;100645.97;1719528;83;21010;-68
2021/11/17 10:03:09;;;;;;;15.18;10.43;;;;;;;4.60;53.37;100643.27;1689093;85;21081;-68
2021/11/17 10:11:33;;;;;;;16.83;9.63;;;;;;;4.22;52.74;100632.32;1714981;84;21522;-69
2021/11/17 10:13:57;;;;;;;14.33;9.80;;;;;;;3.89;52.94;100629.14;1682635;85;21078;-68
2021/11/17 10:16:25;;;;;;;15.05;9.75;;;;;;;3.76;53.75;100630.45;1705035;84;21062;-68
2021/11/17 10:19:19;;;;;;;15.65;9.80;;;;;;;3.70;53.78;100625.07;1714767;84;21105;-68
2021/11/17 10:21:46;;;;;;;14.55;9.18;;;;;;;3.63;53.98;100621.54;1702504;84;21489;-68
2021/11/17 10:24:17;;;;;;;14.23;9.13;;;;;;;3.62;53.31;100611.28;1702679;83;21110;-69
2021/11/17 10:26:50;;;;;;;13.80;8.85;;;;;;;3.58;53.19;100613.27;1681788;85;21878;-69
2021/11/17 10:29:31;;;;;;;18.02;9.93;;;;;;;3.51;53.33;100615.92;1670072;85;21622;-69
2021/11/17 10:32:02;;;;;;;13.45;8.65;;;;;;;3.44;53.14;100618.61;1696167;84;21031;-68
2021/11/17 10:34:39;;;;;;;14.65;9.48;;;;;;;3.32;53.04;100615.38;1682341;84;21625;-68
2021/11/17 10:37:37;;;;;;;14.73;9.45;;;;;;;3.26;53.26;100617.55;1677041;85;21034;-67
2021/11/17 10:40:20;;;;;;;27.60;14.45;;;;;;;3.33;53.71;100609.78;1656690;86;21066;-68
2021/11/17 10:42:55;;;;;;;38.20;17.37;;;;;;;3.44;53.86;100607.84;1691803;83;21082;-68
2021/11/17 10:45:32;;;;;;;27.98;13.00;;;;;;;3.55;53.88;100602.87;1663179;85;21055;-68
2021/11/17 10:47:59;;;;;;;18.25;10.53;;;;;;;3.63;53.48;100601.34;1678873;85;21035;-68
2021/11/17 10:50:33;;;;;;;27.10;16.00;;;;;;;3.77;53.50;100593.59;1699210;84;20971;-69
2021/11/17 10:53:08;;;;;;;24.72;14.95;;;;;;;3.84;52.58;100594.42;1687131;84;21043;-69
2021/11/17 10:55:39;;;;;;;16.12;10.20;;;;;;;3.91;52.48;100593.90;1689778;84;21533;-70
2021/11/17 10:58:09;;;;;;;17.02;12.25;;;;;;;3.98;51.96;100579.91;1685707;84;21091;-69
2021/11/17 11:00:43;;;;;;;14.80;9.88;;;;;;;4.01;52.27;100575.45;1660277;85;21060;-69
2021/11/17 11:03:12;;;;;;;15.15;9.80;;;;;;;4.15;51.87;100579.78;1709449;84;21493;-70
2021/11/17 11:05:44;;;;;;;15.98;9.05;;;;;;;4.28;51.40;100570.34;1711985;84;20978;-69
2021/11/17 11:08:21;;;;;;;10.93;7.85;;;;;;;4.40;50.94;100565.94;1678004;84;21043;-70
2021/11/17 11:10:51;;;;;;;15.35;9.55;;;;;;;4.53;50.64;100565.61;1713437;83;21486;-68
2021/11/17 11:13:32;;;;;;;19.82;11.05;;;;;;;4.55;49.86;100562.17;1695891;84;21033;-69
2021/11/17 11:16:03;;;;;;;14.45;9.40;;;;;;;4.43;50.00;100557.95;1696143;84;21014;-68
2021/11/17 11:18:48;;;;;;;16.10;10.40;;;;;;;4.44;49.70;100554.22;1697854;83;21078;-69
2021/11/17 11:21:18;;;;;;;13.45;9.10;;;;;;;4.44;49.35;100551.52;1661610;86;21030;-69
2021/11/17 11:24:20;;;;;;;19.95;12.20;;;;;;;4.34;49.00;100541.70;1696565;83;21085;-68
2021/11/17 11:27:04;;;;;;;16.42;10.18;;;;;;;4.32;49.49;100536.52;1712968;83;21094;-68
2021/11/17 11:29:36;;;;;;;16.15;11.00;;;;;;;4.40;49.39;100542.20;1709035;83;21200;-67
2021/11/17 11:32:20;;;;;;;15.13;9.60;;;;;;;4.44;49.56;100538.04;1695995;84;21093;-68
2021/11/17 11:34:54;;;;;;;14.98;9.20;;;;;;;4.59;48.71;100533.73;1695236;83;21556;-68
2021/11/17 11:37:29;;;;;;;15.68;10.05;;;;;;;4.46;48.74;100538.13;1711912;83;21018;-67
2021/11/17 11:40:08;;;;;;;15.25;9.40;;;;;;;4.34;48.32;100533.10;1695792;84;21085;-67
2021/11/17 11:43:01;;;;;;;13.65;9.53;;;;;;;4.31;48.43;100534.05;1711878;83;20958;-66
2021/11/17 11:45:33;;;;;;;17.73;10.70;;;;;;;4.38;48.62;100530.30;1736770;82;21053;-67
2021/11/17 11:48:29;;;;;;;13.55;9.28;;;;;;;4.30;48.06;100522.95;1665347;86;21072;-67
2021/11/17 11:51:01;;;;;;;13.68;9.33;;;;;;;4.08;48.02;100518.34;1668274;83;20994;-68
2021/11/17 11:54:10;;;;;;;22.02;13.60;;;;;;;3.72;48.23;100513.95;1724801;83;21112;-67
2021/11/17 11:56:48;;;;;;;20.25;12.30;;;;;;;3.33;49.01;100512.09;1717615;83;20998;-67
2021/11/17 11:59:19;;;;;;;16.97;10.50;;;;;;;2.93;50.12;100516.58;1668593;84;21068;-67
2021/11/17 12:01:47;;;;;;;14.10;9.45;;;;;;;2.64;50.61;100506.14;1666595;86;21030;-67
2021/11/17 12:04:22;;;;;;;27.77;16.45;;;;;;;2.44;51.21;100506.88;1701416;83;21056;-67
2021/11/17 12:07:08;;;;;;;23.18;14.53;;;;;;;2.30;51.60;100503.81;1696480;83;21529;-67
2021/11/17 12:09:39;;;;;;;22.93;14.75;;;;;;;2.24;52.13;100504.63;1654814;84;21129;-67
2021/11/17 12:12:20;;;;;;;21.25;13.85;;;;;;;2.20;52.61;100504.70;1728421;82;20972;-68
2021/11/17 12:14:56;;;;;;;16.97;10.45;;;;;;;2.19;52.86;100502.23;1720174;82;21074;-67
2021/11/17 12:17:29;;;;;;;18.45;10.93;;;;;;;2.17;52.88;100504.27;1717577;82;21054;-67
2021/11/17 12:19:58;;;;;;;17.45;11.68;;;;;;;2.12;52.88;100502.70;1725054;82;21086;-67
2021/11/17 12:22:42;;;;;;;15.25;10.38;;;;;;;2.08;53.01;100501.44;1730792;82;21023;-67
2021/11/17 12:25:30;;;;;;;17.95;11.35;;;;;;;2.04;52.75;100494.81;1716256;83;21111;-68
2021/11/17 12:28:06;;;;;;;20.30;11.22;;;;;;;1.97;52.88;100494.27;1717542;83;21051;-67
2021/11/17 12:31:04;;;;;;;16.35;10.55;;;;;;;1.95;53.00;100494.95;1714398;83;21027;-67
2021/11/17 12:33:45;;;;;;;33.35;15.45;;;;;;;1.94;52.92;100491.14;1716866;83;21038;-67
2021/11/17 12:36:20;;;;;;;38.23;19.40;;;;;;;1.92;52.98;100494.52;1716439;83;21593;-67
2021/11/17 12:38:46;;;;;;;28.77;16.52;;;;;;;1.88;53.01;100492.74;1717525;83;21007;-67
2021/11/17 12:41:24;;;;;;;33.73;20.27;;;;;;;1.85;53.13;100489.62;1717865;83;21051;-67
2021/11/17 12:44:01;;;;;;;34.80;21.40;;;;;;;1.85;53.23;100488.28;1717606;83;21149;-67
2021/11/17 12:46:39;;;;;;;35.97;18.80;;;;;;;1.85;53.42;100482.41;1717699;83;21000;-67
2021/11/17 12:49:29;;;;;;;26.65;16.80;;;;;;;1.83;53.43;100483.12;1717456;83;21043;-66
2021/11/17 12:52:24;;;;;;;20.15;11.97;;;;;;;1.84;53.34;100483.96;1714987;83;21625;-67
2021/11/17 12:55:05;;;;;;;19.15;11.45;;;;;;;1.82;53.48;100488.17;1717472;83;21136;-69
2021/11/17 12:57:40;;;;;;;18.35;11.73;;;;;;;1.83;53.48;100478.27;1717590;83;21465;-69
2021/11/17 13:00:15;;;;;;;20.92;12.07;;;;;;;1.81;53.59;100477.62;1716529;83;21118;-66
2021/11/17 13:02:56;;;;;;;20.25;11.90;;;;;;;1.78;53.47;100472.64;1667214;83;21023;-67
2021/11/17 13:05:37;;;;;;;20.65;11.55;;;;;;;1.75;53.62;100475.73;1717444;83;21031;-66
2021/11/17 13:08:09;;;;;;;25.05;13.32;;;;;;;1.74;53.72;100477.58;1717305;83;21743;-67
2021/11/17 13:10:48;;;;;;;22.42;13.72;;;;;;;1.72;53.78;100469.42;1711243;83;21027;-66
2021/11/17 13:13:24;;;;;;;17.42;10.68;;;;;;;1.72;53.83;100464.05;1709458;84;21024;-66
2021/11/17 13:15:59;;;;;;;19.80;11.65;;;;;;;1.72;53.81;100464.88;1709719;84;21479;-67
2021/11/17 13:18:36;;;;;;;20.37;11.60;;;;;;;1.71;53.80;100470.44;1709633;83;21067;-66
2021/11/17 13:21:15;;;;;;;16.57;10.50;;;;;;;1.68;53.78;100472.17;1709734;84;21078;-66
2021/11/17 13:23:46;;;;;;;19.92;10.70;;;;;;;1.65;53.86;100469.88;1687260;84;21075;-66
2021/11/17 13:26:30;;;;;;;22.65;11.35;;;;;;;1.64;53.95;100466.37;1709745;83;21000;-66
2021/11/17 13:28:57;;;;;;;23.07;13.08;;;;;;;1.63;53.89;100476.78;1709530;84;20995;-66
2021/11/17 13:31:36;;;;;;;23.65;12.80;;;;;;;1.57;53.97;100469.52;1706513;84;21016;-66
2021/11/17 13:34:11;;;;;;;20.80;12.43;;;;;;;1.52;54.12;100470.63;1709712;84;21043;-67
2021/11/17 13:36:52;;;;;;;23.62;14.10;;;;;;;1.47;54.30;100467.70;1709691;84;21075;-66
2021/11/17 13:39:21;;;;;;;22.50;12.50;;;;;;;1.43;54.45;100462.40;1709603;84;21055;-67
2021/11/17 13:41:50;;;;;;;23.42;14.60;;;;;;;1.37;54.57;100468.05;1709651;84;20999;-66
2021/11/17 13:44:20;;;;;;;26.75;14.63;;;;;;;1.35;54.69;100473.27;1709595;84;21059;-66
2021/11/17 13:47:00;;;;;;;27.73;15.48;;;;;;;1.30;54.86;100475.72;1709345;84;21021;-66
2021/11/17 13:49:27;;;;;;;31.07;15.20;;;;;;;1.25;55.00;100466.06;1709712;84;21514;-66
2021/11/17 13:51:53;;;;;;;;;;;;;;;1.21;55.18;100463.45;1712284;84;21015;-66
2021/11/17 13:54:20;;;;;;;34.88;19.57;;;;;;;1.14;55.35;100456.69;1709625;83;20113;-66
2021/11/17 13:56:46;;;;;;;33.18;20.20;;;;;;;1.08;55.50;100464.69;1710040;83;20988;-66
2021/11/17 13:59:13;;;;;;;33.05;18.55;;;;;;;1.04;55.65;100461.55;1709804;84;21051;-66
2021/11/17 14:01:40;;;;;;;33.50;18.52;;;;;;;0.98;55.75;100460.48;1709506;84;21597;-66
2021/11/17 14:04:06;;;;;;;27.95;17.32;;;;;;;0.92;55.92;100469.81;1709596;84;21558;-67
2021/11/17 14:06:32;;;;;;;;;;;;;;;0.87;56.08;100469.04;1712022;84;21071;-66
2021/11/17 14:08:59;;;;;;;27.02;16.97;;;;;;;0.81;56.18;100473.00;1709608;83;20109;-67
2021/11/17 14:11:27;;;;;;;35.92;19.92;;;;;;;0.71;56.38;100463.91;1710024;83;21401;-66
2021/11/17 14:13:54;;;;;;;48.17;24.60;;;;;;;0.62;56.57;100453.00;1709900;84;21102;-66
2021/11/17 14:16:20;;;;;;;40.20;22.93;;;;;;;0.57;56.75;100450.59;1709805;84;21549;-66
2021/11/17 14:18:49;;;;;;;35.80;21.02;;;;;;;0.50;56.93;100454.51;1710015;84;21526;-66
2021/11/17 14:21:15;;;;;;;31.73;19.73;;;;;;;0.44;57.00;100449.41;1709610;84;21043;-66
2021/11/17 14:23:41;;;;;;;39.05;22.35;;;;;;;0.39;57.16;100448.33;1709929;84;21047;-66
2021/11/17 14:26:11;;;;;;;33.73;19.32;;;;;;;0.33;57.31;100450.40;1709620;84;21082;-66
2021/11/17 14:28:41;;;;;;;35.15;20.12;;;;;;;0.27;57.42;100445.81;1709635;84;21066;-66
2021/11/17 14:31:13;;;;;;;35.88;20.80;;;;;;;0.23;57.53;100444.52;1709726;84;21114;-66
2021/11/17 14:33:40;;;;;;;29.82;18.55;;;;;;;0.16;57.72;100455.16;1709725;84;21636;-66
2021/11/17 14:36:10;;;;;;;30.70;18.15;;;;;;;0.11;57.90;100445.50;1689600;84;21063;-66